Latest Weather Observations for Horn Island

IDQ60801

Issued at 10:35 am EST Thursday 28 August 2014 (issued every 30 minutes, with the page automatically refreshed every 10 minutes)

About weather observations | Map of weather stations | Latest weather observations for QLD | Other Formats
Station Details ID: 027058 Name: HORN ISLAND Lat: -10.58 Lon: 142.29 Height: 4.0 m
Data from the previous 72 hours. | See also: Recent months at Horn Island
Date/Time
EST
Temp
°C
App
Temp
°C
Dew
Point
Rel
Hum
%
Delta-T
°C
Wind Press
QNH
hPa
Press
MSL
hPa
Rain
since 9 am
mm
Dir
 
Spd
km/h
Gust
km/h
Spd
kts
Gust
kts
28/10:30am 27.1 24.1 19.9 64 4.7 ESE 35 44 19 24 1013.9 - 0.0
28/10:00am 26.2 23.7 19.8 68 4.1 SE 32 43 17 23 1014.1 - 0.0
28/09:30am 26.4 24.0 20.0 68 4.2 ESE 32 41 17 22 1014.2 - 0.0
28/09:00am 25.8 23.8 19.9 70 3.8 ESE 30 39 16 21 1014.1 1014.1 0.0
28/08:30am 25.7 25.1 20.5 73 3.4 ESE 24 33 13 18 1013.8 - 0.0
28/08:00am 24.9 24.2 20.2 75 3.1 ESE 24 33 13 18 1013.6 - 0.0
28/07:30am 24.5 23.7 20.0 76 2.9 SE 24 30 13 16 1013.3 - 0.0
28/07:00am 24.4 24.5 20.3 78 2.7 SE 20 30 11 16 1013.0 - 0.0
28/06:30am 24.3 23.5 20.0 77 2.8 SE 24 30 13 16 1012.7 - 0.0
28/06:00am 24.2 23.8 20.1 78 2.7 SE 22 30 12 16 1012.5 1012.5 0.0
28/05:30am 24.1 23.6 20.0 78 2.6 SE 22 32 12 17 1012.4 - 0.0
28/05:00am 24.1 24.2 20.0 78 2.6 SE 19 26 10 14 1012.3 - 0.0
28/04:30am 24.0 24.1 19.9 78 2.6 SE 19 28 10 15 1012.4 - 0.0
28/04:00am 23.7 24.2 20.0 80 2.4 SE 17 22 9 12 1012.6 - 0.0
28/03:30am 23.7 23.7 19.8 79 2.5 SE 19 26 10 14 1012.6 - 0.0
28/03:00am 23.7 23.5 19.8 79 2.5 SE 20 30 11 16 1012.9 1012.9 0.0
28/02:30am 23.8 23.6 19.7 78 2.6 SE 20 28 11 15 1013.1 - 0.0
28/02:00am 23.9 23.9 19.8 78 2.6 SE 19 26 10 14 1013.1 - 0.0
28/01:30am 24.0 23.4 19.7 77 2.8 SE 22 32 12 17 1013.3 - 0.0
28/01:00am 24.1 23.9 19.8 77 2.8 SE 20 32 11 17 1013.5 - 0.0
28/12:30am 24.2 23.6 19.7 76 2.9 SE 22 35 12 19 1013.7 - 0.0
28/12:00am 24.2 24.0 19.7 76 2.9 SE 20 28 11 15 1013.9 1013.9 0.0
 
Date/Time
EST
Temp
°C
App
Temp
°C
Dew
Point
Rel
Hum
%
Delta-T
°C
Wind Press
QNH
hPa
Press
MSL
hPa
Rain
since 9 am
mm
Dir
 
Spd
km/h
Gust
km/h
Spd
kts
Gust
kts
27/11:30pm 24.0 23.8 19.7 77 2.8 SE 20 26 11 14 1013.9 - 0.0
27/11:00pm 24.0 22.9 19.5 76 2.9 SE 24 32 13 17 1013.8 - 0.0
27/10:30pm 23.9 23.6 19.6 77 2.8 SE 20 28 11 15 1013.9 - 0.0
27/10:00pm 24.0 23.3 19.5 76 2.9 SE 22 35 12 19 1013.9 - 0.0
27/09:30pm 24.1 23.7 19.4 75 3.0 SE 20 30 11 16 1013.8 - 0.0
27/09:00pm 24.1 23.9 19.4 75 3.0 SE 19 26 10 14 1013.6 1013.6 0.0
27/08:30pm 24.2 23.3 19.1 73 3.3 SE 22 32 12 17 1013.2 - 0.0
27/08:00pm 24.3 22.9 18.9 72 3.4 SE 24 35 13 19 1012.8 - 0.0
27/07:30pm 24.4 23.4 18.8 71 3.6 SE 22 32 12 17 1012.4 - 0.0
27/07:00pm 24.6 22.4 18.8 70 3.7 SE 28 41 15 22 1012.0 - 0.0
27/06:30pm 24.8 22.5 19.4 72 3.5 ESE 30 41 16 22 1011.5 - 0.0
27/06:00pm 25.4 23.5 19.3 69 3.9 ESE 28 35 15 19 1011.1 1011.1 0.0
27/05:30pm 26.1 23.4 19.2 65 4.4 ESE 32 43 17 23 1010.9 - 0.0
27/05:04pm 26.3 23.8 18.9 63 4.7 ESE 30 46 16 25 1010.8 - 0.0
27/05:00pm 26.6 24.2 19.2 64 4.8 ESE 30 43 16 23 1010.7 - 0.0
27/04:52pm 26.5 23.7 19.4 65 4.6 ESE 33 46 18 25 1010.7 - 0.0
27/04:30pm 27.0 23.9 18.8 60 5.3 ESE 33 48 18 26 1010.7 - 0.0
27/04:20pm 27.7 24.8 19.2 60 5.5 ESE 33 52 18 28 1010.7 - 0.0
27/04:00pm 27.7 25.1 19.8 62 5.1 ESE 33 48 18 26 1010.7 - 0.0
27/03:30pm 27.6 24.2 19.1 59 5.5 ESE 35 48 19 26 1010.7 - 0.0
27/03:00pm 28.0 24.7 19.2 58 5.7 ESE 35 50 19 27 1010.9 1010.9 0.0
27/02:30pm 27.9 23.7 18.0 55 6.3 ESE 37 46 20 25 1011.1 - 0.0
27/02:00pm 28.1 23.5 17.9 54 6.5 ESE 39 50 21 27 1011.5 - 0.0
27/01:30pm 28.2 23.5 17.7 53 6.6 ESE 39 50 21 27 1011.8 - 0.0
27/01:00pm 28.4 24.1 17.9 53 6.7 ESE 37 48 20 26 1012.2 - 0.0
27/12:30pm 28.7 24.1 17.9 52 6.9 ESE 39 48 21 26 1012.5 - 0.0
27/12:00pm 28.3 24.3 18.4 55 6.3 ESE 37 44 20 24 1012.9 1012.9 0.0
27/11:30am 28.1 24.5 18.5 56 6.1 ESE 35 48 19 26 1013.3 - 0.0
27/11:00am 28.4 25.0 18.2 54 6.5 ESE 33 50 18 27 1013.7 - 0.0
27/10:30am 27.9 24.2 18.3 56 6.1 ESE 35 44 19 24 1013.9 - 0.0
27/10:00am 27.5 24.1 18.2 57 5.9 ESE 33 46 18 25 1014.1 - 0.0
27/09:30am 26.9 24.0 19.3 63 4.9 ESE 33 44 18 24 1013.9 - 0.0
27/09:00am 27.0 24.0 18.6 60 5.4 ESE 32 43 17 23 1013.7 1013.7 0.0
27/08:30am 26.1 24.0 19.0 65 4.5 SE 28 39 15 21 1013.4 - 0.0
27/08:00am 25.3 23.5 18.7 67 4.2 SE 26 33 14 18 1013.3 - 0.0
27/07:30am 24.9 24.2 19.5 72 3.5 ESE 22 32 12 17 1013.0 - 0.0
27/07:00am 24.2 23.1 19.5 75 3.0 ESE 24 33 13 18 1012.7 - 0.0
27/06:30am 24.2 22.7 19.5 75 3.0 SE 26 37 14 20 1012.3 - 0.0
27/06:00am 24.3 22.5 19.6 75 3.0 ESE 28 35 15 19 1012.1 1012.1 0.0
27/05:30am 24.3 22.0 19.4 74 3.1 SE 30 39 16 21 1011.8 - 0.0
27/05:00am 24.2 22.4 19.5 75 3.0 SE 28 39 15 21 1011.6 - 0.0
27/04:30am 24.3 22.9 19.6 75 3.0 SE 26 37 14 20 1011.6 - 0.0
27/04:00am 24.4 22.2 19.5 74 3.1 SE 30 41 16 22 1011.6 - 0.0
27/03:30am 24.5 21.9 19.6 74 3.2 SE 32 44 17 24 1011.7 - 0.0
27/03:00am 24.5 22.3 19.6 74 3.2 ESE 30 39 16 21 1011.7 1011.7 0.0
27/02:30am 24.5 22.2 19.3 73 3.3 ESE 30 39 16 21 1011.9 - 0.0
27/02:00am 24.5 22.1 19.1 72 3.4 ESE 30 43 16 23 1012.2 - 0.0
27/01:30am 24.6 23.6 19.7 74 3.2 ESE 24 33 13 18 1012.6 - 0.0
27/01:00am 24.6 21.2 19.0 71 3.6 ESE 35 43 19 23 1012.6 - 0.0
27/12:30am 24.7 22.0 19.3 72 3.5 ESE 32 44 17 24 1013.0 - 0.0
27/12:00am 24.7 22.3 19.1 71 3.6 SE 30 41 16 22 1013.3 1013.3 0.0
 
Date/Time
EST
Temp
°C
App
Temp
°C
Dew
Point
Rel
Hum
%
Delta-T
°C
Wind Press
QNH
hPa
Press
MSL
hPa
Rain
since 9 am
mm
Dir
 
Spd
km/h
Gust
km/h
Spd
kts
Gust
kts
26/11:30pm 24.8 22.8 19.2 71 3.6 SE 28 39 15 21 1013.6 - 0.0
26/11:00pm 24.8 22.7 19.0 70 3.7 SE 28 39 15 21 1013.6 - 0.0
26/10:30pm 24.8 21.8 18.7 69 3.9 SE 32 43 17 23 1013.5 - 0.0
26/10:00pm 24.8 22.0 18.3 67 4.1 SE 30 41 16 22 1013.4 - 0.0
26/09:30pm 24.7 22.3 18.2 67 4.1 SE 28 41 15 22 1013.2 - 0.0
26/09:00pm 24.8 21.5 18.3 67 4.1 SE 33 44 18 24 1012.9 1012.9 0.0
26/08:30pm 24.9 22.3 18.6 68 4.0 SE 30 39 16 21 1012.7 - 0.0
26/08:00pm 25.0 22.3 18.4 66 4.2 SE 30 37 16 20 1012.5 - 0.0
26/07:30pm 25.1 23.0 18.1 65 4.4 SE 26 39 14 21 1012.0 - 0.0
26/07:04pm 25.1 22.6 18.1 65 4.4 SE 28 46 15 25 1011.6 - 0.0
26/07:00pm 25.2 23.2 18.4 66 4.3 SE 26 39 14 21 1011.5 - 0.0
26/06:30pm 25.4 22.3 18.3 65 4.5 SE 32 43 17 23 1011.2 - 0.0
26/06:00pm 25.7 22.6 18.4 64 4.6 SE 32 46 17 25 1010.8 1010.8 0.0
26/05:30pm 25.9 23.3 18.6 64 4.6 SE 30 41 16 22 1010.5 - 0.0
26/05:00pm 26.7 23.9 19.1 63 4.9 SE 32 43 17 23 1010.6 - 0.0
26/04:30pm 26.8 23.5 18.4 60 5.3 SE 33 43 18 23 1010.5 - 0.0
26/04:00pm 27.5 24.7 19.0 59 5.5 ESE 32 43 17 23 1010.5 - 0.0
26/03:30pm 27.2 23.3 19.5 62 5.0 ESE 39 46 21 25 1010.6 - 0.0
26/03:00pm 27.7 24.7 18.7 58 5.8 ESE 32 48 17 26 1010.8 1010.8 0.0
26/02:30pm 27.9 24.8 18.9 58 5.8 ESE 33 44 18 24 1011.0 - 0.0
26/02:00pm 28.1 24.1 18.5 56 6.1 E 37 48 20 26 1011.3 - 0.0
26/01:30pm 28.3 24.1 19.0 57 6.0 E 39 52 21 28 1011.4 - 0.0
26/01:00pm 27.6 23.5 19.1 59 5.5 ESE 39 48 21 26 1011.6 - 0.0
26/12:30pm 28.4 24.7 19.1 57 6.0 ESE 37 50 20 27 1012.1 - 0.0
26/12:00pm 29.2 26.6 19.8 57 6.2 ESE 33 44 18 24 1012.4 1012.4 0.0
26/11:30am 28.2 24.5 19.1 57 5.9 ESE 37 48 20 26 1012.8 - 0.0
26/11:00am 27.9 24.8 19.7 61 5.3 ESE 35 48 19 26 1013.3 - 0.0
26/10:30am 27.6 24.6 19.1 59 5.5 ESE 33 46 18 25 1013.6 - 0.0
26/10:00am 27.5 24.6 19.3 61 5.3 ESE 33 48 18 26 1013.6 - 0.0
26/09:30am 27.6 25.2 19.9 63 5.0 ESE 32 44 17 24 1013.6 - 0.0
26/09:00am 26.8 24.9 20.2 67 4.3 ESE 30 41 16 22 1013.6 1013.6 0.0
26/08:30am 26.6 25.5 20.2 68 4.2 SE 26 37 14 20 1013.5 - 0.0
26/08:00am 25.4 25.3 20.0 72 3.5 SE 20 35 11 19 1013.2 - 0.0
26/07:30am 24.9 25.1 20.6 77 2.8 SE 20 32 11 17 1013.0 - 0.0
26/07:00am 24.5 24.8 20.4 78 2.7 SE 19 28 10 15 1012.7 - 0.0
26/06:30am 24.4 25.0 20.3 78 2.7 SE 17 22 9 12 1012.4 - 0.0
26/06:00am 24.4 24.7 20.3 78 2.7 SE 19 28 10 15 1012.0 1012.0 0.0
26/05:30am 24.4 24.7 20.3 78 2.7 SE 19 24 10 13 1011.7 - 0.0
26/05:00am 24.4 24.4 20.1 77 2.8 SE 20 30 11 16 1011.7 - 0.0
26/04:30am 24.4 24.5 20.3 78 2.7 SE 20 35 11 19 1011.7 - 0.0
26/04:00am 24.3 24.5 20.2 78 2.7 SE 19 28 10 15 1011.9 - 0.0
26/03:30am 24.2 24.4 20.1 78 2.7 SE 19 30 10 16 1012.0 - 0.0
26/03:00am 24.0 24.8 19.9 78 2.6 SE 15 26 8 14 1012.1 1012.1 0.0
26/02:30am 23.9 24.2 19.6 77 2.8 SSE 17 28 9 15 1012.1 - 0.0
26/02:00am 24.0 23.7 19.5 76 2.9 SE 20 30 11 16 1012.6 - 0.0
26/01:30am 24.0 23.5 19.1 74 3.1 SE 20 28 11 15 1012.8 - 0.0
26/01:00am 24.1 23.7 19.0 73 3.2 SSE 19 26 10 14 1013.1 - 0.0
26/12:30am 24.1 23.0 18.7 72 3.4 SE 22 33 12 18 1013.2 - 0.0
26/12:00am 24.1 23.4 18.7 72 3.4 SE 20 30 11 16 1013.5 1013.5 0.0
 
Date/Time
EST
Temp
°C
App
Temp
°C
Dew
Point
Rel
Hum
%
Delta-T
°C
Wind Press
QNH
hPa
Press
MSL
hPa
Rain
since 9 am
mm
Dir
 
Spd
km/h
Gust
km/h
Spd
kts
Gust
kts
25/11:30pm 24.2 23.0 18.4 70 3.7 SE 22 35 12 19 1013.7 - 0.0
25/11:00pm 24.1 23.2 18.3 70 3.7 SE 20 30 11 16 1013.8 - 0.0
25/10:30pm 24.2 22.5 18.2 69 3.8 SE 24 35 13 19 1013.9 - 0.0
25/10:00pm 24.3 22.6 18.0 68 4.0 SSE 24 35 13 19 1013.9 - 0.0
25/09:30pm 24.3 23.0 18.2 68 3.8 SE 22 30 12 16 1013.8 - 0.0
25/09:00pm 24.4 23.1 18.1 68 4.0 SE 22 33 12 18 1013.9 1013.9 0.0
25/08:30pm 24.4 22.3 18.1 68 4.0 SE 26 39 14 21 1013.8 - 0.0
25/08:00pm 24.6 22.0 17.8 66 4.3 SE 28 39 15 21 1013.6 - 0.0
25/07:30pm 24.7 22.8 18.6 69 3.9 SE 26 35 14 19 1013.1 - 0.0
25/07:00pm 24.8 22.9 18.5 68 4.0 SE 26 41 14 22 1012.8 - 0.0
25/06:36pm 25.0 22.0 18.7 68 4.0 SE 32 50 17 27 1012.6 - 0.0
25/06:30pm 25.0 21.7 18.4 66 4.2 SE 33 50 18 27 1012.6 - 0.0
25/06:00pm 25.5 22.7 18.2 64 4.6 SE 30 48 16 26 1012.1 1012.1 0.0
25/05:50pm 25.6 22.3 18.0 63 4.8 SE 32 50 17 27 1012.1 - 0.0
25/05:30pm 25.8 23.0 19.0 66 4.4 ESE 32 48 17 26 1011.9 - 0.0
25/05:00pm 26.5 22.8 18.4 61 5.1 SE 35 48 19 26 1011.7 - 0.0
25/04:30pm 26.2 23.0 18.6 63 4.8 ESE 33 50 18 27 1011.5 - 0.0
25/04:00pm 27.1 23.7 18.1 58 5.7 ESE 33 52 18 28 1011.4 - 0.0
25/03:30pm 27.4 22.3 17.6 55 6.2 ESE 41 56 22 30 1011.3 - 0.0
25/03:00pm 27.5 22.1 17.1 53 6.5 ESE 41 61 22 33 1011.5 1011.5 0.0
25/02:46pm 28.3 24.3 18.4 55 6.3 ESE 37 56 20 30 1011.8 - 0.0
25/02:30pm 27.8 23.2 17.9 54 6.3 ESE 39 50 21 27 1011.9 - 0.0
25/02:00pm 27.8 23.0 17.6 53 6.4 SE 39 54 21 29 1012.6 - 0.0
25/01:30pm 27.2 21.8 17.1 54 6.3 ESE 41 57 22 31 1012.9 - 0.0
25/01:26pm 28.1 23.3 17.6 53 6.6 ESE 39 57 21 31 1013.0 - 0.0
25/01:00pm 28.3 23.0 17.2 51 7.0 ESE 41 52 22 28 1013.2 - 0.0
25/12:30pm 27.6 23.3 17.7 54 6.3 ESE 37 50 20 27 1013.5 - 0.0
25/12:00pm 28.3 23.4 18.1 54 6.5 ESE 41 54 22 29 1013.8 1013.8 0.0
25/11:50am 27.8 23.2 17.9 54 6.3 ESE 39 57 21 31 1013.9 - 0.0
25/11:30am 28.5 24.4 18.3 54 6.5 ESE 37 48 20 26 1014.3 - 0.0
25/11:00am 28.3 24.1 19.0 57 6.0 ESE 39 52 21 28 1014.6 - 0.0

Other Formats:

Comma delimited format used in spreadsheet applications
http://www.bom.gov.au/fwo/IDQ60801/IDQ60801.94174.axf

JavaScript Object Notation format (JSON) in row-major order
http://www.bom.gov.au/fwo/IDQ60801/IDQ60801.94174.json